KSTS/STS METAR and TAF weather

Enter ICAO airport designator
Station Type Date Time Source
KSTS METAR 2019/08/24 18:53 UTC NOAA

KSTS 241853Z VRB04KT 10SM CLR 24/15 A2996 RMK AO2 SLP137 T02440150


Station Type Date Time Source
KSTS Decoded METAR 2019/08/24 18:53 UTC NOAA

Station name not available
Aug 24, 2019 - 02:53 PM EDT / 2019.08.24 1853 UTC
Wind: Variable at 5 MPH (4 KT):0
Visibility: 10 mile(s):0
Sky conditions: clear
Temperature: 75.9 F (24.4 C)
Dew Point: 59.0 F (15.0 C)
Relative Humidity: 55%
Pressure (altimeter): 29.96 in. Hg (1014 hPa)
ob: KSTS 241853Z VRB04KT 10SM CLR 24/15 A2996 RMK AO2 SLP137 T02440150
cycle: 19

Station Type Date Time Source
KSTS TAF 2019/08/24 18:39 UTC NOAA

TAF KSTS 241737Z 2418/2518 VRB03KT P6SM SKC
FM241900 19008KT P6SM SKC
FM250400 16004KT P6SM FEW008
FM251000 VRB03KT P6SM BKN006
FM251400 00000KT 1/2SM FG OVC004

Example: see airport list